createdAt,value
2022-08-05T00:00:15.949Z,93.22
2022-08-05T00:02:51.472Z,93.24
2022-08-05T00:06:02.959Z,93.37
2022-08-05T00:08:32.646Z,93.49
2022-08-05T00:10:53.477Z,93.52
2022-08-05T00:13:20.059Z,93.86
2022-08-05T00:15:55.698Z,93.57
2022-08-05T00:18:24.555Z,94.06
2022-08-05T00:20:52.431Z,94.50
2022-08-05T00:23:44.468Z,95.10
2022-08-05T00:26:10.451Z,95.65
2022-08-05T00:28:41.278Z,95.37
2022-08-05T00:31:08.841Z,95.12
2022-08-05T00:34:53.874Z,95.30
2022-08-05T00:37:10.848Z,96.06
2022-08-05T00:39:13.782Z,95.68
2022-08-05T00:41:51.847Z,94.79
2022-08-05T00:44:23.257Z,94.70
2022-08-05T00:47:01.562Z,94.56
2022-08-05T00:49:32.731Z,94.58
2022-08-05T00:52:11.166Z,95.03
2022-08-05T00:54:38.638Z,95.85
2022-08-05T00:57:05.418Z,96.08
2022-08-05T00:59:34.419Z,95.71
2022-08-05T01:02:01.405Z,97.20
2022-08-05T01:04:29.947Z,96.93
2022-08-05T01:06:56.998Z,97.25
2022-08-05T01:09:23.626Z,97.30
2022-08-05T01:12:03.136Z,97.59
2022-08-05T01:14:59.627Z,97.35
2022-08-05T01:17:53.923Z,96.35
2022-08-05T01:20:37.108Z,96.41
2022-08-05T01:23:34.766Z,96.33
2022-08-05T01:26:32.210Z,96.43
2022-08-05T01:29:05.413Z,96.23
2022-08-05T01:31:45.023Z,95.84
2022-08-05T01:34:19.839Z,96.15
2022-08-05T01:36:53.730Z,96.12
2022-08-05T01:39:45.801Z,96.55
2022-08-05T01:42:12.972Z,96.89
2022-08-05T01:44:45.650Z,97.27
2022-08-05T01:47:22.338Z,97.88
2022-08-05T01:50:01.426Z,97.62
2022-08-05T01:52:31.613Z,96.55
2022-08-05T01:55:05.603Z,97.16
2022-08-05T01:58:13.193Z,99.20
2022-08-05T02:00:29.887Z,100.00
2022-08-05T02:03:24.066Z,100.00
2022-08-05T02:05:53.711Z,100.00
2022-08-05T02:08:30.685Z,100.00
2022-08-05T02:11:05.196Z,99.53
2022-08-05T02:13:53.670Z,99.42
2022-08-05T02:16:28.194Z,98.58
2022-08-05T02:19:07.265Z,100.00
2022-08-05T02:21:43.265Z,100.00
2022-08-05T02:24:23.419Z,100.00
2022-08-05T02:26:59.148Z,99.39
2022-08-05T02:29:59.408Z,97.80
2022-08-05T02:32:23.656Z,96.98
2022-08-05T02:34:54.771Z,96.81
2022-08-05T02:37:23.710Z,97.64
2022-08-05T02:39:53.572Z,97.91
2022-08-05T02:42:27.573Z,99.88
2022-08-05T02:44:58.859Z,100.00
2022-08-05T02:48:06.917Z,100.00
2022-08-05T02:50:14.531Z,100.00
2022-08-05T02:52:46.859Z,100.00
2022-08-05T02:55:14.281Z,100.00
2022-08-05T02:58:11.546Z,100.00
2022-08-05T03:00:35.131Z,100.00
2022-08-05T03:03:10.157Z,99.55
2022-08-05T03:06:54.921Z,98.87
2022-08-05T03:08:29.585Z,98.62
2022-08-05T03:11:50.039Z,99.03
2022-08-05T03:13:51.499Z,99.60
2022-08-05T03:16:29.587Z,99.72
2022-08-05T03:18:58.151Z,100.00
2022-08-05T03:21:24.797Z,99.59
2022-08-05T03:23:56.869Z,99.03
2022-08-05T03:26:31.450Z,99.34
2022-08-05T03:28:59.413Z,100.00
2022-08-05T03:31:56.962Z,100.00
2022-08-05T03:34:13.259Z,100.00
2022-08-05T03:36:40.905Z,100.00
2022-08-05T03:39:13.152Z,99.95
2022-08-05T03:41:47.091Z,99.58
2022-08-05T03:44:19.916Z,99.57
2022-08-05T03:46:47.119Z,99.63
2022-08-05T03:49:15.468Z,99.88
2022-08-05T03:52:48.304Z,99.87
2022-08-05T03:55:07.105Z,100.00
2022-08-05T03:57:42.622Z,100.00
2022-08-05T04:00:15.540Z,100.00
2022-08-05T04:02:52.082Z,100.00
2022-08-05T04:05:30.405Z,100.00
2022-08-05T04:08:03.461Z,100.00
2022-08-05T04:10:37.964Z,100.00
2022-08-05T04:13:07.272Z,100.00
2022-08-05T04:15:36.258Z,100.00
2022-08-05T04:18:07.042Z,100.00
2022-08-05T04:20:34.563Z,100.00
2022-08-05T04:23:01.581Z,100.00
2022-08-05T04:25:57.555Z,100.00
2022-08-05T04:28:20.214Z,100.00
2022-08-05T04:31:01.420Z,100.00
2022-08-05T04:33:54.343Z,100.00
2022-08-05T04:36:49.462Z,100.00
2022-08-05T04:39:02.581Z,100.00
2022-08-05T04:41:36.694Z,100.00
2022-08-05T04:44:08.862Z,100.00
2022-08-05T04:46:35.697Z,100.00
2022-08-05T04:49:02.262Z,100.00
2022-08-05T04:51:30.575Z,100.00
2022-08-05T04:53:57.556Z,100.00
2022-08-05T04:56:35.070Z,100.00
2022-08-05T04:59:14.026Z,100.00
2022-08-05T05:02:07.178Z,100.00
2022-08-05T05:04:35.417Z,100.00
2022-08-05T05:07:05.163Z,100.00
2022-08-05T05:09:37.323Z,100.00
2022-08-05T05:12:06.238Z,100.00
2022-08-05T05:14:33.032Z,100.00
2022-08-05T05:17:03.267Z,100.00
2022-08-05T05:19:36.287Z,100.00
2022-08-05T05:22:22.683Z,100.00
2022-08-05T05:24:57.983Z,100.00
2022-08-05T05:27:44.794Z,100.00
2022-08-05T05:30:15.729Z,100.00
2022-08-05T05:32:56.765Z,100.00
2022-08-05T05:35:24.426Z,100.00
2022-08-05T05:38:00.230Z,100.00
2022-08-05T05:40:29.937Z,100.00
2022-08-05T05:42:57.488Z,100.00
2022-08-05T05:45:24.835Z,100.00
2022-08-05T05:48:06.907Z,100.00
2022-08-05T05:50:41.037Z,100.00
2022-08-05T05:53:22.446Z,100.00
2022-08-05T05:55:51.423Z,100.00
2022-08-05T05:58:31.989Z,98.76
2022-08-05T06:01:13.011Z,96.58
2022-08-05T06:04:01.780Z,92.84
2022-08-05T06:06:31.134Z,92.84
2022-08-05T06:08:58.646Z,93.67
2022-08-05T06:11:25.996Z,93.92
2022-08-05T06:13:54.171Z,93.43
2022-08-05T06:16:29.109Z,94.26
2022-08-05T06:19:01.057Z,95.05
2022-08-05T06:21:36.898Z,93.15
2022-08-05T06:24:05.911Z,91.05
2022-08-05T06:26:33.960Z,91.18
2022-08-05T06:29:03.658Z,91.24
2022-08-05T06:31:48.556Z,91.15
2022-08-05T06:34:17.405Z,91.69
2022-08-05T06:36:57.989Z,89.68
2022-08-05T06:39:27.076Z,89.41
2022-08-05T06:41:55.962Z,90.18
2022-08-05T06:44:27.139Z,91.83
2022-08-05T06:46:54.309Z,88.95
2022-08-05T06:49:50.565Z,89.14
2022-08-05T06:52:08.004Z,88.19
2022-08-05T06:54:54.672Z,86.78
2022-08-05T06:57:57.257Z,87.97
2022-08-05T07:00:09.817Z,85.18
2022-08-05T07:02:44.651Z,83.36
2022-08-05T07:05:15.414Z,83.57
2022-08-05T07:07:49.175Z,83.80
2022-08-05T07:10:16.394Z,83.62
2022-08-05T07:12:58.815Z,82.61
2022-08-05T07:16:00.912Z,83.57
2022-08-05T07:18:30.151Z,82.08
2022-08-05T07:20:57.420Z,81.71
2022-08-05T07:23:26.349Z,80.89
2022-08-05T07:25:57.006Z,80.66
2022-08-05T07:28:28.185Z,80.53
2022-08-05T07:31:06.344Z,80.63
2022-08-05T07:33:36.487Z,81.06
2022-08-05T07:36:20.849Z,79.77
2022-08-05T07:38:49.024Z,81.79
2022-08-05T07:42:14.526Z,77.03
2022-08-05T07:44:18.824Z,75.25
2022-08-05T07:46:48.572Z,76.37
2022-08-05T07:49:18.312Z,76.33
2022-08-05T07:51:53.010Z,75.29
2022-08-05T07:54:30.821Z,72.73
2022-08-05T07:57:17.627Z,74.59
2022-08-05T07:59:48.802Z,74.87
2022-08-05T08:02:17.602Z,75.20
2022-08-05T08:04:47.385Z,74.89
2022-08-05T08:07:15.014Z,75.95
2022-08-05T08:09:42.298Z,74.23
2022-08-05T08:12:27.419Z,74.35
2022-08-05T08:14:56.110Z,73.53
2022-08-05T08:17:23.693Z,72.64
2022-08-05T08:20:10.828Z,73.93
2022-08-05T08:22:37.304Z,72.99
2022-08-05T08:25:16.396Z,72.91
2022-08-05T08:27:47.405Z,71.02
2022-08-05T08:30:32.726Z,69.93
2022-08-05T08:33:08.698Z,69.32
2022-08-05T08:35:41.219Z,68.04
2022-08-05T08:38:35.574Z,67.59
2022-08-05T08:41:08.264Z,70.11
2022-08-05T08:45:20.312Z,67.43
2022-08-05T08:46:26.937Z,65.71
2022-08-05T08:49:06.386Z,65.03
2022-08-05T08:52:03.507Z,65.76
2022-08-05T08:54:30.620Z,68.53
2022-08-05T08:56:59.934Z,67.34
2022-08-05T08:59:27.736Z,64.80
2022-08-05T09:02:01.591Z,66.31
2022-08-05T09:04:30.513Z,65.75
2022-08-05T09:06:58.343Z,65.84
2022-08-05T09:09:32.511Z,68.06
2022-08-05T09:12:30.231Z,64.20
2022-08-05T09:14:56.346Z,63.84
2022-08-05T09:17:42.846Z,66.45
2022-08-05T09:20:36.758Z,65.53
2022-08-05T09:23:19.881Z,65.98
2022-08-05T09:26:02.044Z,65.54
2022-08-05T09:28:33.488Z,66.39
2022-08-05T09:32:39.368Z,64.57
2022-08-05T09:33:54.711Z,64.94
2022-08-05T09:36:21.906Z,63.80
2022-08-05T09:39:16.394Z,65.34
2022-08-05T09:42:03.784Z,65.06
2022-08-05T09:44:40.016Z,65.19
2022-08-05T09:47:17.552Z,65.79
2022-08-05T09:50:01.336Z,66.65
2022-08-05T09:52:34.295Z,63.44
2022-08-05T09:55:55.079Z,64.22
2022-08-05T09:57:54.572Z,61.45
2022-08-05T10:00:25.962Z,62.24
2022-08-05T10:02:58.670Z,61.64
2022-08-05T10:05:28.461Z,62.37
2022-08-05T10:08:35.319Z,64.93
2022-08-05T10:10:50.289Z,61.03
2022-08-05T10:13:48.047Z,60.36
2022-08-05T10:16:33.927Z,59.40
2022-08-05T10:19:08.599Z,58.81
2022-08-05T10:21:40.030Z,58.19
2022-08-05T10:24:10.657Z,56.26
2022-08-05T10:26:49.120Z,55.76
2022-08-05T10:29:23.527Z,56.53
2022-08-05T10:32:53.604Z,56.13
2022-08-05T10:34:55.433Z,56.43
2022-08-05T10:37:22.646Z,57.17
2022-08-05T10:39:59.417Z,58.07
2022-08-05T10:42:36.764Z,58.75
2022-08-05T10:45:20.818Z,58.10
2022-08-05T10:48:30.042Z,58.34
2022-08-05T10:51:21.444Z,57.83
2022-08-05T10:54:01.703Z,57.59
2022-08-05T10:56:45.218Z,59.50
2022-08-05T11:00:02.127Z,57.78
2022-08-05T11:02:14.562Z,59.90
2022-08-05T11:04:59.601Z,57.99
2022-08-05T11:07:33.327Z,57.21
2022-08-05T11:10:27.732Z,57.48
2022-08-05T11:12:57.771Z,57.04
2022-08-05T11:16:00.642Z,59.17
2022-08-05T11:18:27.271Z,58.78
2022-08-05T11:20:57.509Z,57.99
2022-08-05T11:24:03.383Z,57.39
2022-08-05T11:26:28.420Z,57.44
2022-08-05T11:29:05.179Z,57.50
2022-08-05T11:31:58.704Z,56.98
2022-08-05T11:34:37.695Z,56.68
2022-08-05T11:38:14.307Z,58.24
2022-08-05T11:40:00.479Z,58.47
2022-08-05T11:42:33.094Z,55.72
2022-08-05T11:45:23.132Z,56.34
2022-08-05T11:47:55.163Z,55.99
2022-08-05T11:50:22.629Z,56.41
2022-08-05T11:52:52.034Z,57.47
2022-08-05T11:55:21.195Z,57.55
2022-08-05T11:58:10.760Z,57.73
2022-08-05T12:00:38.310Z,54.94
2022-08-05T12:03:28.586Z,57.55
2022-08-05T12:06:01.580Z,55.13
2022-08-05T12:08:28.725Z,55.82
2022-08-05T12:11:04.119Z,56.25
2022-08-05T12:13:49.439Z,54.86
2022-08-05T12:16:19.253Z,56.39
2022-08-05T12:18:49.062Z,54.79
2022-08-05T12:21:29.574Z,54.18
2022-08-05T12:24:00.153Z,53.76
2022-08-05T12:26:33.160Z,54.81
2022-08-05T12:28:59.808Z,54.63
2022-08-05T12:31:43.703Z,54.16
2022-08-05T12:34:23.694Z,53.19
2022-08-05T12:36:53.684Z,54.73
2022-08-05T12:39:21.691Z,53.67
2022-08-05T12:41:50.392Z,53.72
2022-08-05T12:44:33.345Z,54.13
2022-08-05T12:47:01.624Z,54.75
2022-08-05T12:50:01.986Z,53.69
2022-08-05T12:52:30.401Z,54.87
2022-08-05T12:55:15.720Z,56.46
2022-08-05T12:58:38.717Z,53.94
2022-08-05T13:02:03.681Z,53.89
2022-08-05T13:03:18.178Z,55.90
2022-08-05T13:05:47.900Z,54.26
2022-08-05T13:08:18.545Z,53.83
2022-08-05T13:10:48.761Z,53.29
2022-08-05T13:14:05.927Z,52.80
2022-08-05T13:16:12.552Z,54.52
2022-08-05T13:18:51.697Z,54.82
2022-08-05T13:21:18.366Z,49.84
2022-08-05T13:23:50.751Z,48.58
2022-08-05T13:26:20.175Z,49.63
2022-08-05T13:28:49.477Z,48.68
2022-08-05T13:31:19.976Z,50.70
2022-08-05T13:34:24.325Z,48.30
2022-08-05T13:36:53.545Z,48.25
2022-08-05T13:39:24.477Z,48.47
2022-08-05T13:42:07.587Z,49.01
2022-08-05T13:44:45.553Z,49.00
2022-08-05T13:47:34.919Z,48.41
2022-08-05T13:50:04.340Z,48.90
2022-08-05T13:52:35.508Z,52.94
2022-08-05T13:55:07.986Z,50.60
2022-08-05T13:57:48.961Z,48.81
2022-08-05T14:00:27.077Z,50.08
2022-08-05T14:02:56.375Z,51.56
2022-08-05T14:05:48.352Z,47.76
2022-08-05T14:08:20.192Z,48.62
2022-08-05T14:10:53.974Z,46.87
2022-08-05T14:13:30.115Z,49.91
2022-08-05T14:16:08.067Z,47.49
2022-08-05T14:18:36.277Z,49.62
2022-08-05T14:22:07.480Z,46.63
2022-08-05T14:23:51.251Z,46.75
2022-08-05T14:26:35.466Z,47.95
2022-08-05T14:29:04.605Z,47.50
2022-08-05T14:32:02.164Z,47.64
2022-08-05T14:34:18.766Z,48.49
2022-08-05T14:36:50.477Z,48.37
2022-08-05T14:39:23.258Z,48.34
2022-08-05T14:42:15.953Z,51.88
2022-08-05T14:44:36.838Z,48.90
2022-08-05T14:47:03.755Z,47.63
2022-08-05T14:49:59.528Z,47.48
2022-08-05T14:52:36.351Z,48.16
2022-08-05T14:55:03.971Z,49.77
2022-08-05T14:57:34.073Z,48.04
2022-08-05T15:00:17.254Z,49.84
2022-08-05T15:02:47.243Z,48.47
2022-08-05T15:05:14.211Z,44.90
2022-08-05T15:08:12.076Z,46.60
2022-08-05T15:10:28.779Z,47.23
2022-08-05T15:13:00.964Z,46.13
2022-08-05T15:15:54.495Z,48.09
2022-08-05T15:18:17.240Z,47.50
2022-08-05T15:20:44.415Z,47.38
2022-08-05T15:23:13.245Z,48.96
2022-08-05T15:25:52.161Z,49.03
2022-08-05T15:28:27.439Z,46.65
2022-08-05T15:30:55.590Z,50.16
2022-08-05T15:34:19.405Z,50.17
2022-08-05T15:36:17.812Z,49.92
2022-08-05T15:38:58.298Z,50.35
2022-08-05T15:41:55.985Z,52.42
2022-08-05T15:44:24.981Z,51.40
2022-08-05T15:46:52.663Z,52.86
2022-08-05T15:49:27.475Z,52.89
2022-08-05T15:52:16.056Z,51.96
2022-08-05T15:54:43.726Z,53.35
2022-08-05T15:57:10.785Z,54.14
2022-08-05T15:59:38.270Z,57.41
2022-08-05T16:02:09.292Z,56.62
2022-08-05T16:04:41.181Z,58.82
2022-08-05T16:07:10.712Z,59.41
2022-08-05T16:09:37.555Z,62.46
2022-08-05T16:12:08.962Z,60.23
2022-08-05T16:14:35.636Z,60.16
2022-08-05T16:17:02.243Z,64.61
2022-08-05T16:20:04.443Z,63.71
2022-08-05T16:22:15.976Z,60.70
2022-08-05T16:24:51.959Z,66.31
2022-08-05T16:27:19.469Z,69.22
2022-08-05T16:30:08.300Z,67.06
2022-08-05T16:32:53.359Z,68.26
2022-08-05T16:35:27.942Z,66.55
2022-08-05T16:38:02.516Z,68.59
2022-08-05T16:40:42.022Z,68.12
2022-08-05T16:43:16.452Z,69.07
2022-08-05T16:46:07.488Z,70.37
2022-08-05T16:48:33.994Z,68.87
2022-08-05T16:51:02.111Z,70.17
2022-08-05T16:54:03.383Z,70.10
2022-08-05T16:56:17.642Z,70.33
2022-08-05T16:58:44.367Z,70.50
2022-08-05T17:01:11.284Z,70.79
2022-08-05T17:03:38.003Z,70.86
2022-08-05T17:06:05.905Z,69.29
2022-08-05T17:08:52.124Z,70.05
2022-08-05T17:11:23.309Z,67.78
2022-08-05T17:13:50.722Z,66.44
2022-08-05T17:16:32.703Z,67.42
2022-08-05T17:19:00.750Z,65.50
2022-08-05T17:21:35.976Z,60.45
2022-08-05T17:24:08.085Z,59.25
2022-08-05T17:26:53.298Z,58.34
2022-08-05T17:29:22.557Z,58.08
2022-08-05T17:31:59.520Z,59.62
2022-08-05T17:34:29.853Z,59.68
2022-08-05T17:37:00.019Z,60.45
2022-08-05T17:39:34.109Z,59.59
2022-08-05T17:42:17.603Z,59.07
2022-08-05T17:44:50.798Z,59.75
2022-08-05T17:47:22.074Z,59.93
2022-08-05T17:49:59.844Z,61.08
2022-08-05T17:52:32.237Z,60.45
2022-08-05T17:54:59.412Z,60.16
2022-08-05T17:57:27.650Z,62.21
2022-08-05T18:00:05.002Z,62.07
2022-08-05T18:02:34.236Z,62.65
2022-08-05T18:05:06.405Z,60.80
2022-08-05T18:07:41.331Z,61.19
2022-08-05T18:10:11.029Z,62.57
2022-08-05T18:12:38.463Z,63.67
2022-08-05T18:15:06.206Z,64.92
2022-08-05T18:18:01.504Z,64.41
2022-08-05T18:20:29.362Z,64.83
2022-08-05T18:23:00.704Z,65.10
2022-08-05T18:25:39.216Z,64.77
2022-08-05T18:28:06.992Z,65.16
2022-08-05T18:30:35.139Z,65.26
2022-08-05T18:33:06.312Z,65.34
2022-08-05T18:36:00.981Z,64.88
2022-08-05T18:38:26.497Z,65.28
2022-08-05T18:41:56.901Z,65.21
2022-08-05T18:43:43.073Z,63.47
2022-08-05T18:46:20.111Z,63.65
2022-08-05T18:48:51.965Z,64.61
2022-08-05T18:52:04.189Z,64.60
2022-08-05T18:54:23.363Z,64.26
2022-08-05T18:56:51.028Z,63.89
2022-08-05T18:59:42.776Z,63.40
2022-08-05T19:02:11.165Z,61.17
2022-08-05T19:05:01.326Z,60.83
2022-08-05T19:07:25.474Z,60.52
2022-08-05T19:09:57.249Z,59.95
2022-08-05T19:12:25.746Z,59.24
2022-08-05T19:15:00.916Z,58.59
2022-08-05T19:17:59.385Z,58.44
2022-08-05T19:20:16.407Z,57.83
2022-08-05T19:22:44.513Z,58.25
2022-08-05T19:25:11.315Z,57.95
2022-08-05T19:27:56.923Z,58.25
2022-08-05T19:30:23.711Z,58.79
2022-08-05T19:32:50.467Z,58.81
2022-08-05T19:35:17.178Z,58.97
2022-08-05T19:38:06.486Z,58.43
2022-08-05T19:40:34.837Z,58.21
2022-08-05T19:43:05.295Z,59.91
2022-08-05T19:45:33.270Z,59.18
2022-08-05T19:48:05.293Z,59.52
2022-08-05T19:50:32.315Z,60.64
2022-08-05T19:53:09.452Z,61.44
2022-08-05T19:56:15.704Z,61.64
2022-08-05T19:58:29.195Z,62.83
2022-08-05T20:00:56.492Z,62.04
2022-08-05T20:03:26.145Z,63.18
2022-08-05T20:05:56.659Z,63.61
2022-08-05T20:08:24.822Z,64.29
2022-08-05T20:10:52.417Z,62.61
2022-08-05T20:13:21.590Z,62.55
2022-08-05T20:16:06.392Z,63.82
2022-08-05T20:18:36.033Z,65.30
2022-08-05T20:21:06.814Z,66.46
2022-08-05T20:23:40.502Z,66.96
2022-08-05T20:26:24.831Z,68.02
2022-08-05T20:28:55.852Z,67.70
2022-08-05T20:31:36.818Z,68.97
2022-08-05T20:34:12.999Z,68.95
2022-08-05T20:36:43.568Z,69.13
2022-08-05T20:39:13.345Z,70.83
2022-08-05T20:41:43.342Z,71.96
2022-08-05T20:44:17.195Z,70.31
2022-08-05T20:46:47.312Z,69.89
2022-08-05T20:49:14.242Z,68.86
2022-08-05T20:51:45.101Z,67.74
2022-08-05T20:54:20.100Z,65.15
2022-08-05T20:56:46.763Z,61.30
2022-08-05T20:59:26.218Z,62.03
2022-08-05T21:01:57.163Z,61.89
2022-08-05T21:04:26.945Z,61.22
2022-08-05T21:06:54.626Z,63.45
2022-08-05T21:09:22.774Z,65.54
2022-08-05T21:12:07.293Z,65.07
2022-08-05T21:14:36.848Z,64.73
2022-08-05T21:17:05.198Z,62.98
2022-08-05T21:19:47.331Z,61.81
2022-08-05T21:22:18.424Z,62.64
2022-08-05T21:24:48.970Z,60.98
2022-08-05T21:27:18.451Z,62.65
2022-08-05T21:29:48.217Z,62.38
2022-08-05T21:32:17.199Z,66.40
2022-08-05T21:35:06.704Z,64.76
2022-08-05T21:37:33.391Z,63.91
2022-08-05T21:40:05.800Z,63.52
2022-08-05T21:42:44.179Z,63.53
2022-08-05T21:45:12.364Z,63.21
2022-08-05T21:47:56.526Z,62.88
2022-08-05T21:50:25.683Z,65.67
2022-08-05T21:52:52.387Z,65.03
2022-08-05T21:55:43.147Z,62.12
2022-08-05T21:58:10.457Z,60.96
2022-08-05T22:00:38.597Z,61.02
2022-08-05T22:03:09.895Z,61.11
2022-08-05T22:05:49.053Z,61.37
2022-08-05T22:08:22.429Z,61.50
2022-08-05T22:10:51.537Z,61.31
2022-08-05T22:14:34.342Z,60.97
2022-08-05T22:16:20.348Z,61.37
2022-08-05T22:18:53.617Z,60.96
2022-08-05T22:21:25.154Z,60.48
2022-08-05T22:24:09.084Z,60.38
2022-08-05T22:26:55.337Z,59.40
2022-08-05T22:29:26.697Z,59.49
2022-08-05T22:31:59.399Z,59.58
2022-08-05T22:34:30.025Z,59.23
2022-08-05T22:36:58.498Z,59.35
2022-08-05T22:39:32.592Z,58.90
2022-08-05T22:42:09.493Z,59.23
2022-08-05T22:44:40.029Z,58.88
2022-08-05T22:47:06.923Z,59.02
2022-08-05T22:50:18.033Z,59.36
2022-08-05T22:52:30.280Z,60.24
2022-08-05T22:54:59.578Z,60.13
2022-08-05T22:57:26.658Z,60.96
2022-08-05T22:59:54.242Z,61.64
2022-08-05T23:02:29.542Z,62.44
2022-08-05T23:05:02.144Z,62.73
2022-08-05T23:07:32.353Z,62.55
2022-08-05T23:10:02.054Z,63.01
2022-08-05T23:12:32.816Z,63.87
2022-08-05T23:15:03.451Z,63.86
2022-08-05T23:17:35.086Z,64.97
2022-08-05T23:20:16.604Z,65.28
2022-08-05T23:22:47.691Z,66.06
2022-08-05T23:25:52.345Z,65.67
2022-08-05T23:28:06.936Z,65.95
2022-08-05T23:30:40.633Z,66.32
2022-08-05T23:33:22.537Z,66.59
2022-08-05T23:35:55.900Z,66.44
2022-08-05T23:38:26.729Z,66.81
2022-08-05T23:40:53.631Z,67.30
2022-08-05T23:43:25.229Z,67.36
2022-08-05T23:46:21.163Z,67.96
2022-08-05T23:49:00.699Z,68.16
2022-08-05T23:51:53.444Z,69.03
2022-08-05T23:54:29.998Z,69.07
2022-08-05T23:57:03.675Z,69.34
